sensor_id;sensor_type;location;lat;lon;timestamp;P1;durP1;ratioP1;P2;durP2;ratioP2
9526;SDS011;4802;51.494;6.770;2023-04-25T00:01:23;8.17;;;2.63;;
9526;SDS011;4802;51.494;6.770;2023-04-25T00:03:53;1.83;;;1.70;;
9526;SDS011;4802;51.494;6.770;2023-04-25T00:06:24;1.80;;;1.70;;
9526;SDS011;4802;51.494;6.770;2023-04-25T00:08:54;5.13;;;1.80;;
9526;SDS011;4802;51.494;6.770;2023-04-25T00:11:23;10.13;;;1.83;;
9526;SDS011;4802;51.494;6.770;2023-04-25T00:13:52;3.30;;;3.03;;
9526;SDS011;4802;51.494;6.770;2023-04-25T00:16:21;4.20;;;2.50;;
9526;SDS011;4802;51.494;6.770;2023-04-25T00:18:52;8.80;;;3.03;;
9526;SDS011;4802;51.494;6.770;2023-04-25T00:21:21;3.23;;;2.80;;
9526;SDS011;4802;51.494;6.770;2023-04-25T00:23:51;3.23;;;2.20;;
9526;SDS011;4802;51.494;6.770;2023-04-25T00:26:23;1.40;;;1.40;;
9526;SDS011;4802;51.494;6.770;2023-04-25T00:28:52;1.47;;;1.37;;
9526;SDS011;4802;51.494;6.770;2023-04-25T00:31:22;3.17;;;2.00;;
9526;SDS011;4802;51.494;6.770;2023-04-25T00:34:08;2.23;;;2.13;;
9526;SDS011;4802;51.494;6.770;2023-04-25T00:36:37;7.97;;;3.90;;
9526;SDS011;4802;51.494;6.770;2023-04-25T00:39:07;2.50;;;2.30;;
9526;SDS011;4802;51.494;6.770;2023-04-25T00:41:45;1.97;;;1.87;;
9526;SDS011;4802;51.494;6.770;2023-04-25T00:44:15;2.90;;;2.60;;
9526;SDS011;4802;51.494;6.770;2023-04-25T00:46:48;2.17;;;2.07;;
9526;SDS011;4802;51.494;6.770;2023-04-25T00:49:18;2.73;;;2.53;;
9526;SDS011;4802;51.494;6.770;2023-04-25T00:51:47;5.20;;;2.40;;
9526;SDS011;4802;51.494;6.770;2023-04-25T00:54:16;2.57;;;2.37;;
9526;SDS011;4802;51.494;6.770;2023-04-25T00:56:45;8.03;;;2.03;;
9526;SDS011;4802;51.494;6.770;2023-04-25T00:59:14;1.47;;;1.37;;
9526;SDS011;4802;51.494;6.770;2023-04-25T01:01:48;2.80;;;1.60;;
9526;SDS011;4802;51.494;6.770;2023-04-25T01:04:19;2.03;;;1.93;;
9526;SDS011;4802;51.494;6.770;2023-04-25T01:06:48;1.30;;;1.30;;
9526;SDS011;4802;51.494;6.770;2023-04-25T01:09:18;4.47;;;3.00;;
9526;SDS011;4802;51.494;6.770;2023-04-25T01:11:47;10.13;;;3.23;;
9526;SDS011;4802;51.494;6.770;2023-04-25T01:14:16;2.57;;;2.47;;
9526;SDS011;4802;51.494;6.770;2023-04-25T01:16:46;3.63;;;2.40;;
9526;SDS011;4802;51.494;6.770;2023-04-25T01:19:19;3.10;;;2.83;;
9526;SDS011;4802;51.494;6.770;2023-04-25T01:21:50;1.70;;;1.60;;
9526;SDS011;4802;51.494;6.770;2023-04-25T01:24:20;5.93;;;2.90;;
9526;SDS011;4802;51.494;6.770;2023-04-25T01:26:49;3.37;;;3.13;;
9526;SDS011;4802;51.494;6.770;2023-04-25T01:29:18;2.57;;;2.40;;
9526;SDS011;4802;51.494;6.770;2023-04-25T01:31:48;3.10;;;2.30;;
9526;SDS011;4802;51.494;6.770;2023-04-25T01:34:17;11.87;;;3.43;;
9526;SDS011;4802;51.494;6.770;2023-04-25T01:36:47;1.90;;;1.77;;
9526;SDS011;4802;51.494;6.770;2023-04-25T01:39:23;1.93;;;1.83;;
9526;SDS011;4802;51.494;6.770;2023-04-25T01:41:52;9.03;;;2.40;;
9526;SDS011;4802;51.494;6.770;2023-04-25T01:44:22;3.93;;;2.30;;
9526;SDS011;4802;51.494;6.770;2023-04-25T01:46:51;4.00;;;2.47;;
9526;SDS011;4802;51.494;6.770;2023-04-25T01:49:20;1.83;;;1.53;;
9526;SDS011;4802;51.494;6.770;2023-04-25T01:51:50;2.07;;;1.97;;
9526;SDS011;4802;51.494;6.770;2023-04-25T01:54:19;2.40;;;2.00;;
9526;SDS011;4802;51.494;6.770;2023-04-25T01:56:51;2.77;;;2.60;;
9526;SDS011;4802;51.494;6.770;2023-04-25T01:59:20;21.23;;;2.40;;
9526;SDS011;4802;51.494;6.770;2023-04-25T02:01:49;4.53;;;1.73;;
9526;SDS011;4802;51.494;6.770;2023-04-25T02:04:25;1.57;;;1.50;;
9526;SDS011;4802;51.494;6.770;2023-04-25T02:06:54;2.67;;;2.50;;
9526;SDS011;4802;51.494;6.770;2023-04-25T02:09:24;4.23;;;3.73;;
9526;SDS011;4802;51.494;6.770;2023-04-25T02:11:54;12.20;;;2.30;;
9526;SDS011;4802;51.494;6.770;2023-04-25T02:14:25;2.50;;;2.40;;
9526;SDS011;4802;51.494;6.770;2023-04-25T02:16:55;1.90;;;1.80;;
9526;SDS011;4802;51.494;6.770;2023-04-25T02:19:25;2.37;;;2.17;;
9526;SDS011;4802;51.494;6.770;2023-04-25T02:21:54;3.03;;;2.27;;
9526;SDS011;4802;51.494;6.770;2023-04-25T02:24:23;1.80;;;1.70;;
9526;SDS011;4802;51.494;6.770;2023-04-25T02:26:55;11.23;;;3.37;;
9526;SDS011;4802;51.494;6.770;2023-04-25T02:29:25;3.30;;;2.10;;
9526;SDS011;4802;51.494;6.770;2023-04-25T02:31:54;5.03;;;3.60;;
9526;SDS011;4802;51.494;6.770;2023-04-25T02:34:23;3.77;;;3.17;;
9526;SDS011;4802;51.494;6.770;2023-04-25T02:36:52;9.23;;;2.80;;
9526;SDS011;4802;51.494;6.770;2023-04-25T02:39:21;1.63;;;1.63;;
9526;SDS011;4802;51.494;6.770;2023-04-25T02:41:52;4.87;;;1.53;;
9526;SDS011;4802;51.494;6.770;2023-04-25T02:44:23;2.03;;;1.93;;
9526;SDS011;4802;51.494;6.770;2023-04-25T02:46:52;2.47;;;1.97;;
9526;SDS011;4802;51.494;6.770;2023-04-25T02:49:21;4.93;;;2.37;;
9526;SDS011;4802;51.494;6.770;2023-04-25T02:51:50;2.50;;;2.30;;
9526;SDS011;4802;51.494;6.770;2023-04-25T02:54:18;3.33;;;2.70;;
9526;SDS011;4802;51.494;6.770;2023-04-25T02:56:47;3.03;;;1.30;;
9526;SDS011;4802;51.494;6.770;2023-04-25T02:59:17;2.23;;;2.13;;
9526;SDS011;4802;51.494;6.770;2023-04-25T03:01:52;2.13;;;2.03;;
9526;SDS011;4802;51.494;6.770;2023-04-25T03:04:21;1.63;;;1.53;;
9526;SDS011;4802;51.494;6.770;2023-04-25T03:06:51;3.33;;;2.17;;
9526;SDS011;4802;51.494;6.770;2023-04-25T03:09:20;3.43;;;2.00;;
9526;SDS011;4802;51.494;6.770;2023-04-25T03:11:49;3.53;;;3.00;;
9526;SDS011;4802;51.494;6.770;2023-04-25T03:14:18;3.20;;;2.00;;
9526;SDS011;4802;51.494;6.770;2023-04-25T03:16:47;6.87;;;4.17;;
9526;SDS011;4802;51.494;6.770;2023-04-25T03:19:17;4.10;;;2.97;;
9526;SDS011;4802;51.494;6.770;2023-04-25T03:21:46;4.27;;;1.70;;
9526;SDS011;4802;51.494;6.770;2023-04-25T03:24:15;6.43;;;4.33;;
9526;SDS011;4802;51.494;6.770;2023-04-25T03:26:44;6.80;;;3.60;;
9526;SDS011;4802;51.494;6.770;2023-04-25T03:29:13;3.43;;;2.93;;
9526;SDS011;4802;51.494;6.770;2023-04-25T03:31:42;2.60;;;2.50;;
9526;SDS011;4802;51.494;6.770;2023-04-25T03:34:12;11.10;;;2.83;;
9526;SDS011;4802;51.494;6.770;2023-04-25T03:36:43;3.30;;;3.00;;
9526;SDS011;4802;51.494;6.770;2023-04-25T03:39:13;3.23;;;1.73;;
9526;SDS011;4802;51.494;6.770;2023-04-25T03:41:44;2.33;;;2.20;;
9526;SDS011;4802;51.494;6.770;2023-04-25T03:44:13;19.50;;;4.03;;
9526;SDS011;4802;51.494;6.770;2023-04-25T03:46:42;5.53;;;2.93;;
9526;SDS011;4802;51.494;6.770;2023-04-25T03:49:11;3.40;;;2.50;;
9526;SDS011;4802;51.494;6.770;2023-04-25T03:51:54;5.13;;;3.40;;
9526;SDS011;4802;51.494;6.770;2023-04-25T03:54:23;16.50;;;4.17;;
9526;SDS011;4802;51.494;6.770;2023-04-25T03:56:53;8.50;;;3.63;;
9526;SDS011;4802;51.494;6.770;2023-04-25T03:59:22;4.27;;;3.00;;
9526;SDS011;4802;51.494;6.770;2023-04-25T04:01:51;3.10;;;2.90;;
9526;SDS011;4802;51.494;6.770;2023-04-25T04:04:20;12.03;;;4.33;;
9526;SDS011;4802;51.494;6.770;2023-04-25T04:06:52;8.60;;;3.53;;
9526;SDS011;4802;51.494;6.770;2023-04-25T04:09:21;3.53;;;2.23;;
9526;SDS011;4802;51.494;6.770;2023-04-25T04:11:51;2.77;;;2.57;;
9526;SDS011;4802;51.494;6.770;2023-04-25T04:14:20;3.33;;;2.50;;
9526;SDS011;4802;51.494;6.770;2023-04-25T04:16:50;7.90;;;2.67;;
9526;SDS011;4802;51.494;6.770;2023-04-25T04:19:19;2.80;;;2.60;;
9526;SDS011;4802;51.494;6.770;2023-04-25T04:21:49;6.77;;;2.20;;
9526;SDS011;4802;51.494;6.770;2023-04-25T04:24:21;2.63;;;2.43;;
9526;SDS011;4802;51.494;6.770;2023-04-25T04:26:50;4.73;;;2.53;;
9526;SDS011;4802;51.494;6.770;2023-04-25T04:29:23;7.10;;;5.30;;
9526;SDS011;4802;51.494;6.770;2023-04-25T04:31:52;4.00;;;2.90;;
9526;SDS011;4802;51.494;6.770;2023-04-25T04:34:21;3.30;;;2.97;;
9526;SDS011;4802;51.494;6.770;2023-04-25T04:36:53;6.17;;;4.17;;
9526;SDS011;4802;51.494;6.770;2023-04-25T04:39:27;3.60;;;1.57;;
9526;SDS011;4802;51.494;6.770;2023-04-25T04:42:11;4.63;;;2.30;;
9526;SDS011;4802;51.494;6.770;2023-04-25T04:44:42;4.23;;;2.80;;
9526;SDS011;4802;51.494;6.770;2023-04-25T04:47:17;3.80;;;2.90;;
9526;SDS011;4802;51.494;6.770;2023-04-25T04:49:48;2.90;;;2.70;;
9526;SDS011;4802;51.494;6.770;2023-04-25T04:52:17;2.70;;;2.50;;
9526;SDS011;4802;51.494;6.770;2023-04-25T04:54:49;7.03;;;4.20;;
9526;SDS011;4802;51.494;6.770;2023-04-25T04:57:18;2.73;;;2.53;;
9526;SDS011;4802;51.494;6.770;2023-04-25T04:59:46;4.93;;;3.80;;
9526;SDS011;4802;51.494;6.770;2023-04-25T05:02:16;7.47;;;3.40;;
9526;SDS011;4802;51.494;6.770;2023-04-25T05:04:46;10.77;;;3.33;;
9526;SDS011;4802;51.494;6.770;2023-04-25T05:07:15;4.67;;;3.90;;
9526;SDS011;4802;51.494;6.770;2023-04-25T05:09:44;6.30;;;3.80;;
9526;SDS011;4802;51.494;6.770;2023-04-25T05:12:15;6.33;;;3.57;;
9526;SDS011;4802;51.494;6.770;2023-04-25T05:14:44;6.90;;;3.47;;
9526;SDS011;4802;51.494;6.770;2023-04-25T05:17:13;9.37;;;2.60;;
9526;SDS011;4802;51.494;6.770;2023-04-25T05:19:42;3.20;;;3.00;;
9526;SDS011;4802;51.494;6.770;2023-04-25T05:22:11;4.13;;;3.07;;
9526;SDS011;4802;51.494;6.770;2023-04-25T05:24:40;7.67;;;3.97;;
9526;SDS011;4802;51.494;6.770;2023-04-25T05:27:08;3.00;;;2.67;;
9526;SDS011;4802;51.494;6.770;2023-04-25T05:29:39;11.03;;;4.57;;
9526;SDS011;4802;51.494;6.770;2023-04-25T05:32:09;6.70;;;3.13;;
9526;SDS011;4802;51.494;6.770;2023-04-25T05:34:38;2.20;;;2.10;;
9526;SDS011;4802;51.494;6.770;2023-04-25T05:37:08;4.17;;;3.07;;
9526;SDS011;4802;51.494;6.770;2023-04-25T05:39:37;5.80;;;2.50;;
9526;SDS011;4802;51.494;6.770;2023-04-25T05:42:06;4.70;;;4.20;;
9526;SDS011;4802;51.494;6.770;2023-04-25T05:44:34;5.50;;;3.67;;
9526;SDS011;4802;51.494;6.770;2023-04-25T05:47:04;3.70;;;3.50;;
9526;SDS011;4802;51.494;6.770;2023-04-25T05:49:33;4.07;;;3.33;;
9526;SDS011;4802;51.494;6.770;2023-04-25T05:52:02;5.53;;;3.27;;
9526;SDS011;4802;51.494;6.770;2023-04-25T05:54:31;2.10;;;1.73;;
9526;SDS011;4802;51.494;6.770;2023-04-25T05:57:00;6.27;;;3.43;;
9526;SDS011;4802;51.494;6.770;2023-04-25T05:59:29;4.03;;;2.30;;
9526;SDS011;4802;51.494;6.770;2023-04-25T06:01:58;15.17;;;2.80;;
9526;SDS011;4802;51.494;6.770;2023-04-25T06:04:29;3.17;;;2.83;;
9526;SDS011;4802;51.494;6.770;2023-04-25T06:06:58;2.30;;;1.97;;
9526;SDS011;4802;51.494;6.770;2023-04-25T06:09:27;6.00;;;2.43;;
9526;SDS011;4802;51.494;6.770;2023-04-25T06:11:55;12.70;;;2.20;;
9526;SDS011;4802;51.494;6.770;2023-04-25T06:14:24;2.10;;;1.90;;
9526;SDS011;4802;51.494;6.770;2023-04-25T06:16:55;7.63;;;1.87;;
9526;SDS011;4802;51.494;6.770;2023-04-25T06:19:24;2.00;;;1.87;;
9526;SDS011;4802;51.494;6.770;2023-04-25T06:21:54;7.30;;;2.40;;
9526;SDS011;4802;51.494;6.770;2023-04-25T06:24:23;15.60;;;2.13;;
9526;SDS011;4802;51.494;6.770;2023-04-25T06:26:52;1.53;;;1.10;;
9526;SDS011;4802;51.494;6.770;2023-04-25T06:29:21;1.20;;;1.13;;
9526;SDS011;4802;51.494;6.770;2023-04-25T06:31:50;12.27;;;2.00;;
9526;SDS011;4802;51.494;6.770;2023-04-25T06:34:19;2.10;;;1.33;;
9526;SDS011;4802;51.494;6.770;2023-04-25T06:36:48;4.93;;;2.00;;
9526;SDS011;4802;51.494;6.770;2023-04-25T06:39:18;2.80;;;2.10;;
9526;SDS011;4802;51.494;6.770;2023-04-25T06:41:49;3.07;;;1.87;;
9526;SDS011;4802;51.494;6.770;2023-04-25T06:44:20;2.47;;;1.53;;
9526;SDS011;4802;51.494;6.770;2023-04-25T06:46:50;5.73;;;1.77;;
9526;SDS011;4802;51.494;6.770;2023-04-25T06:49:19;4.60;;;1.77;;
9526;SDS011;4802;51.494;6.770;2023-04-25T06:51:48;5.10;;;1.90;;
9526;SDS011;4802;51.494;6.770;2023-04-25T06:54:18;2.70;;;1.60;;
9526;SDS011;4802;51.494;6.770;2023-04-25T06:56:47;2.70;;;1.93;;
9526;SDS011;4802;51.494;6.770;2023-04-25T06:59:16;5.20;;;2.00;;
9526;SDS011;4802;51.494;6.770;2023-04-25T07:01:46;6.13;;;1.43;;
9526;SDS011;4802;51.494;6.770;2023-04-25T07:04:15;3.80;;;2.80;;
9526;SDS011;4802;51.494;6.770;2023-04-25T07:06:44;1.93;;;1.70;;
9526;SDS011;4802;51.494;6.770;2023-04-25T07:09:15;1.27;;;1.27;;
9526;SDS011;4802;51.494;6.770;2023-04-25T07:11:45;6.90;;;2.53;;
9526;SDS011;4802;51.494;6.770;2023-04-25T07:14:14;2.10;;;1.90;;
9526;SDS011;4802;51.494;6.770;2023-04-25T07:16:43;5.77;;;2.13;;
9526;SDS011;4802;51.494;6.770;2023-04-25T07:19:12;14.93;;;2.13;;
9526;SDS011;4802;51.494;6.770;2023-04-25T07:21:41;2.63;;;1.60;;
9526;SDS011;4802;51.494;6.770;2023-04-25T07:24:11;1.07;;;1.03;;
9526;SDS011;4802;51.494;6.770;2023-04-25T07:26:40;4.10;;;1.83;;
9526;SDS011;4802;51.494;6.770;2023-04-25T07:29:13;5.13;;;1.40;;
9526;SDS011;4802;51.494;6.770;2023-04-25T07:31:42;3.33;;;1.63;;
9526;SDS011;4802;51.494;6.770;2023-04-25T07:34:11;1.00;;;1.00;;
9526;SDS011;4802;51.494;6.770;2023-04-25T07:36:40;2.20;;;2.00;;
9526;SDS011;4802;51.494;6.770;2023-04-25T07:39:09;8.60;;;1.80;;
9526;SDS011;4802;51.494;6.770;2023-04-25T07:41:38;8.63;;;1.70;;
9526;SDS011;4802;51.494;6.770;2023-04-25T07:44:08;4.20;;;2.20;;
9526;SDS011;4802;51.494;6.770;2023-04-25T07:46:39;2.30;;;1.70;;
9526;SDS011;4802;51.494;6.770;2023-04-25T07:49:08;4.13;;;1.50;;
9526;SDS011;4802;51.494;6.770;2023-04-25T07:51:37;3.43;;;1.70;;
9526;SDS011;4802;51.494;6.770;2023-04-25T07:54:06;2.27;;;0.97;;
9526;SDS011;4802;51.494;6.770;2023-04-25T07:56:35;7.33;;;1.57;;
9526;SDS011;4802;51.494;6.770;2023-04-25T07:59:18;0.83;;;0.80;;
9526;SDS011;4802;51.494;6.770;2023-04-25T08:01:49;5.80;;;1.87;;
9526;SDS011;4802;51.494;6.770;2023-04-25T08:04:18;2.77;;;1.40;;
9526;SDS011;4802;51.494;6.770;2023-04-25T08:06:49;6.63;;;0.97;;
9526;SDS011;4802;51.494;6.770;2023-04-25T08:09:19;1.30;;;1.10;;
9526;SDS011;4802;51.494;6.770;2023-04-25T08:11:48;9.93;;;1.30;;
9526;SDS011;4802;51.494;6.770;2023-04-25T08:14:17;2.83;;;1.43;;
9526;SDS011;4802;51.494;6.770;2023-04-25T08:16:47;1.63;;;1.40;;
9526;SDS011;4802;51.494;6.770;2023-04-25T08:19:19;5.10;;;2.10;;
9526;SDS011;4802;51.494;6.770;2023-04-25T08:21:49;4.17;;;1.17;;
9526;SDS011;4802;51.494;6.770;2023-04-25T08:24:18;1.40;;;1.30;;
9526;SDS011;4802;51.494;6.770;2023-04-25T08:26:47;3.90;;;1.07;;
9526;SDS011;4802;51.494;6.770;2023-04-25T08:29:16;1.47;;;1.00;;
9526;SDS011;4802;51.494;6.770;2023-04-25T08:31:45;2.40;;;1.13;;
9526;SDS011;4802;51.494;6.770;2023-04-25T08:34:14;7.67;;;1.20;;
9526;SDS011;4802;51.494;6.770;2023-04-25T08:36:45;1.57;;;1.43;;
9526;SDS011;4802;51.494;6.770;2023-04-25T08:39:14;10.40;;;2.20;;
9526;SDS011;4802;51.494;6.770;2023-04-25T08:41:43;0.80;;;0.80;;
9526;SDS011;4802;51.494;6.770;2023-04-25T08:44:12;1.37;;;1.13;;
9526;SDS011;4802;51.494;6.770;2023-04-25T08:46:41;1.10;;;1.00;;
9526;SDS011;4802;51.494;6.770;2023-04-25T08:49:10;11.17;;;0.97;;
9526;SDS011;4802;51.494;6.770;2023-04-25T08:51:41;11.83;;;1.63;;
9526;SDS011;4802;51.494;6.770;2023-04-25T08:54:14;2.50;;;1.10;;
9526;SDS011;4802;51.494;6.770;2023-04-25T08:56:47;2.10;;;1.27;;
9526;SDS011;4802;51.494;6.770;2023-04-25T08:59:16;2.10;;;1.60;;
9526;SDS011;4802;51.494;6.770;2023-04-25T09:01:45;3.90;;;2.77;;
9526;SDS011;4802;51.494;6.770;2023-04-25T09:04:14;1.90;;;1.30;;
9526;SDS011;4802;51.494;6.770;2023-04-25T09:06:43;3.53;;;1.33;;
9526;SDS011;4802;51.494;6.770;2023-04-25T09:09:12;2.67;;;0.93;;
9526;SDS011;4802;51.494;6.770;2023-04-25T09:11:43;1.60;;;1.27;;
9526;SDS011;4802;51.494;6.770;2023-04-25T09:14:13;4.43;;;1.30;;
9526;SDS011;4802;51.494;6.770;2023-04-25T09:16:58;2.20;;;1.10;;
9526;SDS011;4802;51.494;6.770;2023-04-25T09:19:30;4.37;;;1.00;;
9526;SDS011;4802;51.494;6.770;2023-04-25T09:22:03;0.90;;;0.70;;
9526;SDS011;4802;51.494;6.770;2023-04-25T09:24:33;2.20;;;0.67;;
9526;SDS011;4802;51.494;6.770;2023-04-25T09:27:07;2.30;;;1.17;;
9526;SDS011;4802;51.494;6.770;2023-04-25T09:29:37;0.60;;;0.50;;
9526;SDS011;4802;51.494;6.770;2023-04-25T09:32:17;2.87;;;0.70;;
9526;SDS011;4802;51.494;6.770;2023-04-25T09:34:47;10.10;;;1.37;;
9526;SDS011;4802;51.494;6.770;2023-04-25T09:37:17;2.87;;;0.83;;
9526;SDS011;4802;51.494;6.770;2023-04-25T09:39:47;4.70;;;2.13;;
9526;SDS011;4802;51.494;6.770;2023-04-25T09:42:21;5.03;;;1.97;;
9526;SDS011;4802;51.494;6.770;2023-04-25T09:44:51;1.43;;;0.63;;
9526;SDS011;4802;51.494;6.770;2023-04-25T09:47:22;1.00;;;0.73;;
9526;SDS011;4802;51.494;6.770;2023-04-25T09:49:51;6.03;;;1.13;;
9526;SDS011;4802;51.494;6.770;2023-04-25T09:52:20;1.70;;;0.70;;
9526;SDS011;4802;51.494;6.770;2023-04-25T09:54:51;0.73;;;0.67;;
9526;SDS011;4802;51.494;6.770;2023-04-25T09:57:22;2.50;;;0.90;;
9526;SDS011;4802;51.494;6.770;2023-04-25T09:59:53;2.37;;;1.47;;
9526;SDS011;4802;51.494;6.770;2023-04-25T10:02:22;3.17;;;1.30;;
9526;SDS011;4802;51.494;6.770;2023-04-25T10:04:53;4.10;;;1.20;;
9526;SDS011;4802;51.494;6.770;2023-04-25T10:07:24;4.10;;;1.20;;
9526;SDS011;4802;51.494;6.770;2023-04-25T10:09:58;1.80;;;1.00;;
9526;SDS011;4802;51.494;6.770;2023-04-25T10:12:30;3.87;;;1.73;;
9526;SDS011;4802;51.494;6.770;2023-04-25T10:15:00;1.10;;;1.00;;
9526;SDS011;4802;51.494;6.770;2023-04-25T10:17:32;3.03;;;0.60;;
9526;SDS011;4802;51.494;6.770;2023-04-25T10:20:03;1.70;;;0.93;;
9526;SDS011;4802;51.494;6.770;2023-04-25T10:22:38;1.17;;;1.07;;
9526;SDS011;4802;51.494;6.770;2023-04-25T10:25:11;2.17;;;1.17;;
9526;SDS011;4802;51.494;6.770;2023-04-25T10:27:44;6.00;;;2.10;;
9526;SDS011;4802;51.494;6.770;2023-04-25T10:30:14;0.70;;;0.70;;
9526;SDS011;4802;51.494;6.770;2023-04-25T10:32:43;1.10;;;0.87;;
9526;SDS011;4802;51.494;6.770;2023-04-25T10:35:14;3.17;;;1.23;;
9526;SDS011;4802;51.494;6.770;2023-04-25T10:37:59;1.67;;;0.80;;
9526;SDS011;4802;51.494;6.770;2023-04-25T10:40:29;4.03;;;0.60;;
9526;SDS011;4802;51.494;6.770;2023-04-25T10:45:53;0.70;;;0.70;;
9526;SDS011;4802;51.494;6.770;2023-04-25T10:48:25;1.13;;;1.03;;
9526;SDS011;4802;51.494;6.770;2023-04-25T10:51:06;3.77;;;1.13;;
9526;SDS011;4802;51.494;6.770;2023-04-25T10:53:37;1.43;;;0.67;;
9526;SDS011;4802;51.494;6.770;2023-04-25T10:56:11;2.20;;;1.50;;
9526;SDS011;4802;51.494;6.770;2023-04-25T10:58:43;0.80;;;0.60;;
9526;SDS011;4802;51.494;6.770;2023-04-25T11:01:19;1.00;;;0.70;;
9526;SDS011;4802;51.494;6.770;2023-04-25T11:03:49;2.10;;;1.53;;
9526;SDS011;4802;51.494;6.770;2023-04-25T11:06:27;1.33;;;1.23;;
9526;SDS011;4802;51.494;6.770;2023-04-25T11:09:01;1.53;;;0.70;;
9526;SDS011;4802;51.494;6.770;2023-04-25T11:11:30;1.60;;;1.10;;
9526;SDS011;4802;51.494;6.770;2023-04-25T11:14:02;5.43;;;1.10;;
9526;SDS011;4802;51.494;6.770;2023-04-25T11:16:34;0.70;;;0.70;;
9526;SDS011;4802;51.494;6.770;2023-04-25T11:19:03;1.17;;;0.90;;
9526;SDS011;4802;51.494;6.770;2023-04-25T11:21:32;2.30;;;1.30;;
9526;SDS011;4802;51.494;6.770;2023-04-25T11:24:03;1.27;;;1.00;;
9526;SDS011;4802;51.494;6.770;2023-04-25T11:26:42;6.27;;;2.03;;
9526;SDS011;4802;51.494;6.770;2023-04-25T11:29:10;2.10;;;1.03;;
9526;SDS011;4802;51.494;6.770;2023-04-25T11:31:44;6.30;;;1.03;;
9526;SDS011;4802;51.494;6.770;2023-04-25T11:34:16;4.10;;;1.10;;
9526;SDS011;4802;51.494;6.770;2023-04-25T11:36:45;2.50;;;1.33;;
9526;SDS011;4802;51.494;6.770;2023-04-25T11:39:15;7.50;;;1.27;;
9526;SDS011;4802;51.494;6.770;2023-04-25T11:41:44;3.23;;;1.17;;
9526;SDS011;4802;51.494;6.770;2023-04-25T11:44:15;1.00;;;0.80;;
9526;SDS011;4802;51.494;6.770;2023-04-25T11:46:50;0.77;;;0.77;;
9526;SDS011;4802;51.494;6.770;2023-04-25T11:49:20;3.03;;;2.13;;
9526;SDS011;4802;51.494;6.770;2023-04-25T11:51:52;6.00;;;1.43;;
9526;SDS011;4802;51.494;6.770;2023-04-25T11:54:23;0.97;;;0.83;;
9526;SDS011;4802;51.494;6.770;2023-04-25T11:56:52;1.93;;;1.83;;
9526;SDS011;4802;51.494;6.770;2023-04-25T11:59:23;3.80;;;1.23;;
9526;SDS011;4802;51.494;6.770;2023-04-25T12:01:55;0.87;;;0.87;;
9526;SDS011;4802;51.494;6.770;2023-04-25T12:04:29;6.53;;;2.13;;
9526;SDS011;4802;51.494;6.770;2023-04-25T12:07:00;1.07;;;1.07;;
9526;SDS011;4802;51.494;6.770;2023-04-25T12:09:41;7.67;;;1.30;;
9526;SDS011;4802;51.494;6.770;2023-04-25T12:12:12;3.60;;;0.90;;
9526;SDS011;4802;51.494;6.770;2023-04-25T12:14:50;2.30;;;1.50;;
9526;SDS011;4802;51.494;6.770;2023-04-25T12:17:24;1.40;;;0.83;;
9526;SDS011;4802;51.494;6.770;2023-04-25T12:19:53;0.70;;;0.70;;
9526;SDS011;4802;51.494;6.770;2023-04-25T12:22:24;2.00;;;1.20;;
9526;SDS011;4802;51.494;6.770;2023-04-25T12:24:55;1.03;;;0.80;;
9526;SDS011;4802;51.494;6.770;2023-04-25T12:27:25;2.00;;;1.00;;
9526;SDS011;4802;51.494;6.770;2023-04-25T12:29:55;2.07;;;0.80;;
9526;SDS011;4802;51.494;6.770;2023-04-25T12:32:27;0.80;;;0.60;;
9526;SDS011;4802;51.494;6.770;2023-04-25T12:34:59;1.60;;;1.23;;
9526;SDS011;4802;51.494;6.770;2023-04-25T12:37:28;7.83;;;1.40;;
9526;SDS011;4802;51.494;6.770;2023-04-25T12:40:12;3.37;;;1.77;;
9526;SDS011;4802;51.494;6.770;2023-04-25T12:42:42;1.27;;;1.17;;
9526;SDS011;4802;51.494;6.770;2023-04-25T12:45:12;0.93;;;0.93;;
9526;SDS011;4802;51.494;6.770;2023-04-25T12:47:46;2.30;;;0.70;;
9526;SDS011;4802;51.494;6.770;2023-04-25T12:50:19;2.10;;;0.97;;
9526;SDS011;4802;51.494;6.770;2023-04-25T12:53:03;2.87;;;1.40;;
9526;SDS011;4802;51.494;6.770;2023-04-25T12:55:32;3.90;;;3.10;;
9526;SDS011;4802;51.494;6.770;2023-04-25T12:58:02;1.10;;;1.10;;
9526;SDS011;4802;51.494;6.770;2023-04-25T13:00:31;4.00;;;1.47;;
9526;SDS011;4802;51.494;6.770;2023-04-25T13:03:03;1.30;;;0.90;;
9526;SDS011;4802;51.494;6.770;2023-04-25T13:05:34;4.93;;;1.40;;
9526;SDS011;4802;51.494;6.770;2023-04-25T13:08:03;0.70;;;0.70;;
9526;SDS011;4802;51.494;6.770;2023-04-25T13:10:32;5.30;;;0.77;;
9526;SDS011;4802;51.494;6.770;2023-04-25T13:13:02;1.47;;;1.37;;
9526;SDS011;4802;51.494;6.770;2023-04-25T13:15:32;2.70;;;0.93;;
9526;SDS011;4802;51.494;6.770;2023-04-25T13:18:03;1.90;;;1.23;;
9526;SDS011;4802;51.494;6.770;2023-04-25T13:20:32;2.40;;;1.93;;
9526;SDS011;4802;51.494;6.770;2023-04-25T13:23:03;3.53;;;0.97;;
9526;SDS011;4802;51.494;6.770;2023-04-25T13:25:32;5.23;;;1.53;;
9526;SDS011;4802;51.494;6.770;2023-04-25T13:28:01;1.53;;;0.90;;
9526;SDS011;4802;51.494;6.770;2023-04-25T13:30:31;2.97;;;0.80;;
9526;SDS011;4802;51.494;6.770;2023-04-25T13:33:00;3.07;;;1.13;;
9526;SDS011;4802;51.494;6.770;2023-04-25T13:35:31;3.33;;;2.00;;
9526;SDS011;4802;51.494;6.770;2023-04-25T13:38:00;1.33;;;0.80;;
9526;SDS011;4802;51.494;6.770;2023-04-25T13:40:30;6.37;;;0.93;;
9526;SDS011;4802;51.494;6.770;2023-04-25T13:43:00;2.30;;;1.47;;
9526;SDS011;4802;51.494;6.770;2023-04-25T13:45:30;0.90;;;0.90;;
9526;SDS011;4802;51.494;6.770;2023-04-25T13:48:00;1.13;;;0.93;;
9526;SDS011;4802;51.494;6.770;2023-04-25T13:50:31;1.27;;;1.00;;
9526;SDS011;4802;51.494;6.770;2023-04-25T13:53:00;4.57;;;1.50;;
9526;SDS011;4802;51.494;6.770;2023-04-25T13:55:29;3.93;;;1.07;;
9526;SDS011;4802;51.494;6.770;2023-04-25T13:57:58;0.80;;;0.80;;
9526;SDS011;4802;51.494;6.770;2023-04-25T14:00:42;2.10;;;1.43;;
9526;SDS011;4802;51.494;6.770;2023-04-25T14:03:36;2.97;;;1.13;;
9526;SDS011;4802;51.494;6.770;2023-04-25T14:06:50;1.57;;;1.07;;
9526;SDS011;4802;51.494;6.770;2023-04-25T14:09:19;1.83;;;1.00;;
9526;SDS011;4802;51.494;6.770;2023-04-25T14:11:52;1.40;;;1.30;;
9526;SDS011;4802;51.494;6.770;2023-04-25T14:14:21;2.50;;;1.80;;
9526;SDS011;4802;51.494;6.770;2023-04-25T14:16:51;0.93;;;0.93;;
9526;SDS011;4802;51.494;6.770;2023-04-25T14:19:24;1.90;;;0.87;;
9526;SDS011;4802;51.494;6.770;2023-04-25T14:21:54;0.90;;;0.90;;
9526;SDS011;4802;51.494;6.770;2023-04-25T14:24:24;0.70;;;0.70;;
9526;SDS011;4802;51.494;6.770;2023-04-25T14:26:52;1.20;;;0.67;;
9526;SDS011;4802;51.494;6.770;2023-04-25T14:29:21;1.93;;;0.90;;
9526;SDS011;4802;51.494;6.770;2023-04-25T14:31:50;4.40;;;1.57;;
9526;SDS011;4802;51.494;6.770;2023-04-25T14:34:21;4.53;;;0.80;;
9526;SDS011;4802;51.494;6.770;2023-04-25T14:36:51;4.83;;;1.37;;
9526;SDS011;4802;51.494;6.770;2023-04-25T14:39:31;0.60;;;0.60;;
9526;SDS011;4802;51.494;6.770;2023-04-25T14:42:01;5.90;;;1.03;;
9526;SDS011;4802;51.494;6.770;2023-04-25T14:44:30;1.10;;;1.00;;
9526;SDS011;4802;51.494;6.770;2023-04-25T14:46:59;1.00;;;0.90;;
9526;SDS011;4802;51.494;6.770;2023-04-25T14:49:29;4.70;;;1.67;;
9526;SDS011;4802;51.494;6.770;2023-04-25T14:51:58;0.90;;;0.90;;
9526;SDS011;4802;51.494;6.770;2023-04-25T14:54:28;0.53;;;0.53;;
9526;SDS011;4802;51.494;6.770;2023-04-25T14:56:59;6.80;;;0.97;;
9526;SDS011;4802;51.494;6.770;2023-04-25T14:59:28;0.60;;;0.60;;
9526;SDS011;4802;51.494;6.770;2023-04-25T15:01:58;0.83;;;0.83;;
9526;SDS011;4802;51.494;6.770;2023-04-25T15:04:29;11.13;;;1.07;;
9526;SDS011;4802;51.494;6.770;2023-04-25T15:06:59;2.20;;;0.60;;
9526;SDS011;4802;51.494;6.770;2023-04-25T15:09:30;0.63;;;0.63;;
9526;SDS011;4802;51.494;6.770;2023-04-25T15:12:01;1.63;;;0.70;;
9526;SDS011;4802;51.494;6.770;2023-04-25T15:14:31;2.60;;;0.80;;
9526;SDS011;4802;51.494;6.770;2023-04-25T15:17:02;1.50;;;1.27;;
9526;SDS011;4802;51.494;6.770;2023-04-25T15:19:33;1.03;;;1.00;;
9526;SDS011;4802;51.494;6.770;2023-04-25T15:22:03;16.17;;;1.27;;
9526;SDS011;4802;51.494;6.770;2023-04-25T15:24:33;0.50;;;0.50;;
9526;SDS011;4802;51.494;6.770;2023-04-25T15:27:04;0.70;;;0.70;;
9526;SDS011;4802;51.494;6.770;2023-04-25T15:29:34;0.70;;;0.70;;
9526;SDS011;4802;51.494;6.770;2023-04-25T15:32:03;3.70;;;0.70;;
9526;SDS011;4802;51.494;6.770;2023-04-25T15:34:33;2.07;;;1.53;;
9526;SDS011;4802;51.494;6.770;2023-04-25T15:37:03;4.03;;;0.80;;
9526;SDS011;4802;51.494;6.770;2023-04-25T15:39:32;1.00;;;0.90;;